Aeroporto :
LOGIN :

Iscrizione | Disclaimer

   EN    FR    IT 

 










Sommario :    VFR   VFR Marginale   IFR   IFR Intensivo   IFR Molto Intensivo
Visibilità : 
Base nubi : 
>= 8 km
>= 3000ft
5 / 8 km
1000 / 3000 ft
1500m / 5 km
500 / 1000 ft
800 / 1500m
200 / 500 ft
< 800m
< 200 ft
Simboli :   Temporali  Nebbia  Neve Forte  Precipitazioni Forti  Vento > 20 kt
SIGMETs :   Varie  Temporali  Ghiacco  Turbolenza  Onda orograficha  Ceneri Vulcaniche






- Altitudine del aeroporto : 291 ft
- Codice IATA : ORY


LFPO - Paris-Orly

ULTIMO METAR :
  • 071630Z 24006KT CAVOK 19/06 Q1020 NOSIG

METARs OBSOLETI :
  • 071600Z 24005KT 180V280 CAVOK 19/07 Q1020 NOSIG
  • 071530Z 23006KT CAVOK 20/07 Q1020 NOSIG
  • 071500Z 25005KT 220V280 CAVOK 20/07 Q1021 NOSIG
  • 071430Z 20004KT 170V250 CAVOK 20/06 Q1021 NOSIG
  • 071400Z 24004KT 210V280 CAVOK 20/07 Q1021 NOSIG

TAF TAF LFPO
Valido dal 07 a 12 ore il 08 a 18 ore UTC


071100Z 0712/0818 VRB04KT CAVOK
PROB30
TEMPO 0804/0806 -RA BKN030
BECMG 0808/0810 33008KT
ATIS : +33 1 49 75 65 80



MetMap, La meteo Aeronautica in un colpo d'occhio ! - Copyright ORBIFLY Dicembre 2007 - Disclaimer

ORBIFLY MET'MAP TEAM :

Programmazione e sviluppo : Alexandra Zaïnal
Concezione : Baudouin d'Aumeries
Supporto tecnico e logistico : Manuel Goepfert
Aiuto : Marc-Olivier Méhu
Aiuto per la traduzione : Arnaldo La Scala




FONTI E CREDITI :

   NOAA